UAAH/BXH METAR and TAF weather

Enter ICAO airport designator
Station Type Date Time Source
UAAH METAR 2022/10/01 09:00 UTC NOAA

UAAH 010900Z 10009MPS CAVOK 10/M10 Q1031 NOSIG RMK QFE735/0981


Station Type Date Time Source
UAAH Decoded METAR 2022/10/01 09:00 UTC NOAA

Station name not available
Oct 01, 2022 - 05:00 AM EDT / 2022.10.01 0900 UTC
Wind: from the E (100 degrees) at 20 MPH (17 KT):0
Visibility: greater than 7 mile(s):0
Temperature: 50 F (10 C)
Dew Point: 14 F (-10 C)
Relative Humidity: 23%
Pressure (altimeter): 30.45 in. Hg (1031 hPa)
ob: UAAH 010900Z 10009MPS CAVOK 10/M10 Q1031 NOSIG RMK QFE735/0981
cycle: 9

Station Type Date Time Source
UAAH TAF 2021/05/11 09:06 UTC NOAA

TAF
AMD TAF
AMD UAAH 111100Z 1109/1218 CNL

Example: see airport list